sensor_id;sensor_type;location;lat;lon;timestamp;temperature;humidity
29201;DHT22;16244;51.956;12.980;2022-12-22T00:01:41;4.50;99.90
29201;DHT22;16244;51.956;12.980;2022-12-22T00:04:42;4.50;99.90
29201;DHT22;16244;51.956;12.980;2022-12-22T00:07:27;4.60;99.90
29201;DHT22;16244;51.956;12.980;2022-12-22T00:10:13;4.50;99.90
29201;DHT22;16244;51.956;12.980;2022-12-22T00:13:12;4.60;99.90
29201;DHT22;16244;51.956;12.980;2022-12-22T00:15:58;4.60;99.90
29201;DHT22;16244;51.956;12.980;2022-12-22T00:18:46;4.60;99.90
29201;DHT22;16244;51.956;12.980;2022-12-22T00:21:47;4.50;99.90
29201;DHT22;16244;51.956;12.980;2022-12-22T00:24:46;4.60;99.90
29201;DHT22;16244;51.956;12.980;2022-12-22T00:27:45;4.60;99.90
29201;DHT22;16244;51.956;12.980;2022-12-22T00:30:30;4.60;99.90
29201;DHT22;16244;51.956;12.980;2022-12-22T00:33:17;4.60;99.90
29201;DHT22;16244;51.956;12.980;2022-12-22T00:36:05;4.60;99.90
29201;DHT22;16244;51.956;12.980;2022-12-22T00:38:53;4.60;99.90
29201;DHT22;16244;51.956;12.980;2022-12-22T00:41:38;4.60;99.90
29201;DHT22;16244;51.956;12.980;2022-12-22T00:44:22;4.60;99.90
29201;DHT22;16244;51.956;12.980;2022-12-22T00:47:09;4.60;99.90
29201;DHT22;16244;51.956;12.980;2022-12-22T00:49:56;4.50;99.90
29201;DHT22;16244;51.956;12.980;2022-12-22T00:52:42;4.60;99.90
29201;DHT22;16244;51.956;12.980;2022-12-22T00:55:30;4.60;99.90
29201;DHT22;16244;51.956;12.980;2022-12-22T00:58:17;4.50;99.90
29201;DHT22;16244;51.956;12.980;2022-12-22T01:01:03;4.60;99.90
29201;DHT22;16244;51.956;12.980;2022-12-22T01:03:48;4.60;99.90
29201;DHT22;16244;51.956;12.980;2022-12-22T01:06:34;4.60;99.90
29201;DHT22;16244;51.956;12.980;2022-12-22T01:09:22;4.60;99.90
29201;DHT22;16244;51.956;12.980;2022-12-22T01:12:10;4.60;99.90
29201;DHT22;16244;51.956;12.980;2022-12-22T01:14:56;4.70;99.90
29201;DHT22;16244;51.956;12.980;2022-12-22T01:17:41;4.70;99.90
29201;DHT22;16244;51.956;12.980;2022-12-22T01:20:26;4.70;99.90
29201;DHT22;16244;51.956;12.980;2022-12-22T01:23:11;4.70;99.90
29201;DHT22;16244;51.956;12.980;2022-12-22T01:25:57;4.70;99.90
29201;DHT22;16244;51.956;12.980;2022-12-22T01:28:42;4.80;99.90
29201;DHT22;16244;51.956;12.980;2022-12-22T01:31:28;4.80;99.90
29201;DHT22;16244;51.956;12.980;2022-12-22T01:34:13;4.80;99.90
29201;DHT22;16244;51.956;12.980;2022-12-22T01:36:58;4.80;99.90
29201;DHT22;16244;51.956;12.980;2022-12-22T01:39:43;4.90;99.90
29201;DHT22;16244;51.956;12.980;2022-12-22T01:42:32;4.90;99.90
29201;DHT22;16244;51.956;12.980;2022-12-22T01:45:20;4.90;99.90
29201;DHT22;16244;51.956;12.980;2022-12-22T01:48:10;4.90;99.90
29201;DHT22;16244;51.956;12.980;2022-12-22T01:50:55;4.90;99.90
29201;DHT22;16244;51.956;12.980;2022-12-22T01:53:40;4.90;99.90
29201;DHT22;16244;51.956;12.980;2022-12-22T01:56:25;4.90;99.90
29201;DHT22;16244;51.956;12.980;2022-12-22T01:59:12;5.00;99.90
29201;DHT22;16244;51.956;12.980;2022-12-22T02:01:57;5.00;99.90
29201;DHT22;16244;51.956;12.980;2022-12-22T02:04:45;5.00;99.90
29201;DHT22;16244;51.956;12.980;2022-12-22T02:07:45;5.00;99.90
29201;DHT22;16244;51.956;12.980;2022-12-22T02:10:59;5.10;99.90
29201;DHT22;16244;51.956;12.980;2022-12-22T02:13:56;5.10;99.90
29201;DHT22;16244;51.956;12.980;2022-12-22T02:16:50;5.10;99.90
29201;DHT22;16244;51.956;12.980;2022-12-22T02:19:55;5.20;99.90
29201;DHT22;16244;51.956;12.980;2022-12-22T02:22:54;5.20;99.90
29201;DHT22;16244;51.956;12.980;2022-12-22T02:25:48;5.20;99.90
29201;DHT22;16244;51.956;12.980;2022-12-22T02:28:36;5.20;99.90
29201;DHT22;16244;51.956;12.980;2022-12-22T02:31:20;5.20;99.90
29201;DHT22;16244;51.956;12.980;2022-12-22T02:34:12;5.20;99.90
29201;DHT22;16244;51.956;12.980;2022-12-22T02:37:03;5.20;99.90
29201;DHT22;16244;51.956;12.980;2022-12-22T02:39:57;5.10;99.90
29201;DHT22;16244;51.956;12.980;2022-12-22T02:42:51;5.10;99.90
29201;DHT22;16244;51.956;12.980;2022-12-22T02:45:42;4.90;99.90
29201;DHT22;16244;51.956;12.980;2022-12-22T02:48:32;4.90;99.90
29201;DHT22;16244;51.956;12.980;2022-12-22T02:51:23;4.70;99.90
29201;DHT22;16244;51.956;12.980;2022-12-22T02:54:09;4.80;99.90
29201;DHT22;16244;51.956;12.980;2022-12-22T02:56:54;4.60;99.90
29201;DHT22;16244;51.956;12.980;2022-12-22T02:59:39;4.50;99.90
29201;DHT22;16244;51.956;12.980;2022-12-22T03:02:25;4.50;99.90
29201;DHT22;16244;51.956;12.980;2022-12-22T03:05:10;4.50;99.90
29201;DHT22;16244;51.956;12.980;2022-12-22T03:07:54;4.50;99.90
29201;DHT22;16244;51.956;12.980;2022-12-22T03:10:39;4.50;99.90
29201;DHT22;16244;51.956;12.980;2022-12-22T03:13:24;4.50;99.90
29201;DHT22;16244;51.956;12.980;2022-12-22T03:16:08;4.50;99.90
29201;DHT22;16244;51.956;12.980;2022-12-22T03:18:54;4.50;99.90
29201;DHT22;16244;51.956;12.980;2022-12-22T03:21:39;4.50;99.90
29201;DHT22;16244;51.956;12.980;2022-12-22T03:24:24;4.50;99.90
29201;DHT22;16244;51.956;12.980;2022-12-22T03:27:09;4.50;99.90
29201;DHT22;16244;51.956;12.980;2022-12-22T03:29:37;4.50;99.90
29201;DHT22;16244;51.956;12.980;2022-12-22T03:32:04;4.50;99.90
29201;DHT22;16244;51.956;12.980;2022-12-22T03:34:32;4.50;99.90
29201;DHT22;16244;51.956;12.980;2022-12-22T03:36:59;4.60;99.90
29201;DHT22;16244;51.956;12.980;2022-12-22T03:39:26;4.70;99.90
29201;DHT22;16244;51.956;12.980;2022-12-22T03:41:53;4.60;99.90
29201;DHT22;16244;51.956;12.980;2022-12-22T03:44:38;4.70;99.90
29201;DHT22;16244;51.956;12.980;2022-12-22T03:47:23;4.70;99.90
29201;DHT22;16244;51.956;12.980;2022-12-22T03:49:52;4.70;99.90
29201;DHT22;16244;51.956;12.980;2022-12-22T03:52:19;4.70;99.90
29201;DHT22;16244;51.956;12.980;2022-12-22T03:54:46;4.70;99.90
29201;DHT22;16244;51.956;12.980;2022-12-22T03:57:13;4.70;99.90
29201;DHT22;16244;51.956;12.980;2022-12-22T03:59:40;4.70;99.90
29201;DHT22;16244;51.956;12.980;2022-12-22T04:02:08;4.80;99.90
29201;DHT22;16244;51.956;12.980;2022-12-22T04:04:35;4.90;99.90
29201;DHT22;16244;51.956;12.980;2022-12-22T04:07:03;4.90;99.90
29201;DHT22;16244;51.956;12.980;2022-12-22T04:09:30;4.80;99.90
29201;DHT22;16244;51.956;12.980;2022-12-22T04:11:57;4.80;99.90
29201;DHT22;16244;51.956;12.980;2022-12-22T04:14:42;4.70;99.90
29201;DHT22;16244;51.956;12.980;2022-12-22T04:17:09;4.70;99.90
29201;DHT22;16244;51.956;12.980;2022-12-22T04:19:36;4.70;99.90
29201;DHT22;16244;51.956;12.980;2022-12-22T04:22:05;4.80;99.90
29201;DHT22;16244;51.956;12.980;2022-12-22T04:24:32;4.70;99.90
29201;DHT22;16244;51.956;12.980;2022-12-22T04:26:59;4.70;99.90
29201;DHT22;16244;51.956;12.980;2022-12-22T04:29:26;4.60;99.90
29201;DHT22;16244;51.956;12.980;2022-12-22T04:31:53;4.70;99.90
29201;DHT22;16244;51.956;12.980;2022-12-22T04:34:21;4.80;99.90
29201;DHT22;16244;51.956;12.980;2022-12-22T04:36:48;4.80;99.90
29201;DHT22;16244;51.956;12.980;2022-12-22T04:39:49;4.80;99.90
29201;DHT22;16244;51.956;12.980;2022-12-22T04:42:52;4.90;99.90
29201;DHT22;16244;51.956;12.980;2022-12-22T04:45:51;5.00;99.90
29201;DHT22;16244;51.956;12.980;2022-12-22T04:48:41;5.10;99.90
29201;DHT22;16244;51.956;12.980;2022-12-22T04:51:25;5.10;99.90
29201;DHT22;16244;51.956;12.980;2022-12-22T04:54:28;5.10;99.90
29201;DHT22;16244;51.956;12.980;2022-12-22T04:57:28;5.10;99.90
29201;DHT22;16244;51.956;12.980;2022-12-22T05:00:23;5.20;99.90
29201;DHT22;16244;51.956;12.980;2022-12-22T05:03:25;5.30;99.90
29201;DHT22;16244;51.956;12.980;2022-12-22T05:06:22;5.30;99.90
29201;DHT22;16244;51.956;12.980;2022-12-22T05:09:18;5.30;99.90
29201;DHT22;16244;51.956;12.980;2022-12-22T05:12:02;5.50;99.90
29201;DHT22;16244;51.956;12.980;2022-12-22T05:18:10;5.60;99.90
29201;DHT22;16244;51.956;12.980;2022-12-22T05:20:38;5.70;99.90
29201;DHT22;16244;51.956;12.980;2022-12-22T05:23:05;5.70;99.90
29201;DHT22;16244;51.956;12.980;2022-12-22T05:25:32;5.70;99.90
29201;DHT22;16244;51.956;12.980;2022-12-22T05:27:59;5.80;99.90
29201;DHT22;16244;51.956;12.980;2022-12-22T05:30:26;5.80;99.90
29201;DHT22;16244;51.956;12.980;2022-12-22T05:32:53;5.90;99.90
29201;DHT22;16244;51.956;12.980;2022-12-22T05:35:22;5.90;99.90
29201;DHT22;16244;51.956;12.980;2022-12-22T05:37:49;5.90;99.90
29201;DHT22;16244;51.956;12.980;2022-12-22T05:40:16;6.00;99.90
29201;DHT22;16244;51.956;12.980;2022-12-22T05:42:44;6.00;99.90
29201;DHT22;16244;51.956;12.980;2022-12-22T05:45:13;6.00;99.90
29201;DHT22;16244;51.956;12.980;2022-12-22T05:47:41;6.00;99.90
29201;DHT22;16244;51.956;12.980;2022-12-22T05:50:10;6.00;99.90
29201;DHT22;16244;51.956;12.980;2022-12-22T05:52:39;6.10;99.90
29201;DHT22;16244;51.956;12.980;2022-12-22T05:55:07;6.10;99.90
29201;DHT22;16244;51.956;12.980;2022-12-22T05:57:34;6.10;99.90
29201;DHT22;16244;51.956;12.980;2022-12-22T06:00:03;6.00;99.90
29201;DHT22;16244;51.956;12.980;2022-12-22T06:02:30;6.00;99.90
29201;DHT22;16244;51.956;12.980;2022-12-22T06:04:57;6.00;99.90
29201;DHT22;16244;51.956;12.980;2022-12-22T06:07:25;6.00;99.90
29201;DHT22;16244;51.956;12.980;2022-12-22T06:09:53;6.10;99.90
29201;DHT22;16244;51.956;12.980;2022-12-22T06:12:20;6.10;99.90
29201;DHT22;16244;51.956;12.980;2022-12-22T06:14:47;6.10;99.90
29201;DHT22;16244;51.956;12.980;2022-12-22T06:17:14;6.10;99.90
29201;DHT22;16244;51.956;12.980;2022-12-22T06:19:41;6.20;99.90
29201;DHT22;16244;51.956;12.980;2022-12-22T06:22:09;6.30;99.90
29201;DHT22;16244;51.956;12.980;2022-12-22T06:24:36;6.20;99.90
29201;DHT22;16244;51.956;12.980;2022-12-22T06:27:04;6.30;99.90
29201;DHT22;16244;51.956;12.980;2022-12-22T06:29:31;6.40;99.90
29201;DHT22;16244;51.956;12.980;2022-12-22T06:31:59;6.40;99.90
29201;DHT22;16244;51.956;12.980;2022-12-22T06:34:26;6.40;99.90
29201;DHT22;16244;51.956;12.980;2022-12-22T06:36:53;6.40;99.90
29201;DHT22;16244;51.956;12.980;2022-12-22T06:39:20;6.40;99.90
29201;DHT22;16244;51.956;12.980;2022-12-22T06:41:47;6.40;99.90
29201;DHT22;16244;51.956;12.980;2022-12-22T06:44:33;6.40;99.90
29201;DHT22;16244;51.956;12.980;2022-12-22T06:47:01;6.50;99.90
29201;DHT22;16244;51.956;12.980;2022-12-22T06:49:28;6.50;99.90
29201;DHT22;16244;51.956;12.980;2022-12-22T06:51:55;6.40;99.90
29201;DHT22;16244;51.956;12.980;2022-12-22T06:54:22;6.40;99.90
29201;DHT22;16244;51.956;12.980;2022-12-22T06:56:49;6.40;99.90
29201;DHT22;16244;51.956;12.980;2022-12-22T06:59:18;6.40;99.90
29201;DHT22;16244;51.956;12.980;2022-12-22T07:01:46;6.30;99.90
29201;DHT22;16244;51.956;12.980;2022-12-22T07:04:14;6.30;99.90
29201;DHT22;16244;51.956;12.980;2022-12-22T07:06:45;6.30;99.90
29201;DHT22;16244;51.956;12.980;2022-12-22T07:09:13;6.40;99.90
29201;DHT22;16244;51.956;12.980;2022-12-22T07:11:40;6.40;99.90
29201;DHT22;16244;51.956;12.980;2022-12-22T07:14:08;6.40;99.90
29201;DHT22;16244;51.956;12.980;2022-12-22T07:16:35;6.40;99.90
29201;DHT22;16244;51.956;12.980;2022-12-22T07:19:03;6.40;99.90
29201;DHT22;16244;51.956;12.980;2022-12-22T07:21:31;6.50;99.90
29201;DHT22;16244;51.956;12.980;2022-12-22T07:23:58;6.40;99.90
29201;DHT22;16244;51.956;12.980;2022-12-22T07:26:25;6.40;99.90
29201;DHT22;16244;51.956;12.980;2022-12-22T07:28:52;6.40;99.90
29201;DHT22;16244;51.956;12.980;2022-12-22T07:31:19;6.50;99.90
29201;DHT22;16244;51.956;12.980;2022-12-22T07:33:46;6.50;99.90
29201;DHT22;16244;51.956;12.980;2022-12-22T07:36:16;6.60;99.90
29201;DHT22;16244;51.956;12.980;2022-12-22T07:38:46;6.60;99.90
29201;DHT22;16244;51.956;12.980;2022-12-22T07:41:16;6.60;99.90
29201;DHT22;16244;51.956;12.980;2022-12-22T07:44:02;6.60;99.90
29201;DHT22;16244;51.956;12.980;2022-12-22T07:46:32;6.60;99.90
29201;DHT22;16244;51.956;12.980;2022-12-22T07:48:59;6.60;99.90
29201;DHT22;16244;51.956;12.980;2022-12-22T07:51:45;6.70;99.90
29201;DHT22;16244;51.956;12.980;2022-12-22T07:54:14;6.70;99.90
29201;DHT22;16244;51.956;12.980;2022-12-22T07:56:42;6.70;99.90
29201;DHT22;16244;51.956;12.980;2022-12-22T07:59:10;6.70;99.90
29201;DHT22;16244;51.956;12.980;2022-12-22T08:01:37;6.70;99.90
29201;DHT22;16244;51.956;12.980;2022-12-22T08:04:06;6.70;99.90
29201;DHT22;16244;51.956;12.980;2022-12-22T08:06:34;6.70;99.90
29201;DHT22;16244;51.956;12.980;2022-12-22T08:09:03;6.80;99.90
29201;DHT22;16244;51.956;12.980;2022-12-22T08:11:30;6.80;99.90
29201;DHT22;16244;51.956;12.980;2022-12-22T08:13:57;6.80;99.90
29201;DHT22;16244;51.956;12.980;2022-12-22T08:16:25;6.90;99.90
29201;DHT22;16244;51.956;12.980;2022-12-22T08:18:52;6.90;99.90
29201;DHT22;16244;51.956;12.980;2022-12-22T08:21:19;6.90;99.90
29201;DHT22;16244;51.956;12.980;2022-12-22T08:23:46;6.90;99.90
29201;DHT22;16244;51.956;12.980;2022-12-22T08:26:17;6.90;99.90
29201;DHT22;16244;51.956;12.980;2022-12-22T08:28:49;6.90;99.90
29201;DHT22;16244;51.956;12.980;2022-12-22T08:31:18;6.90;99.90
29201;DHT22;16244;51.956;12.980;2022-12-22T08:33:47;7.00;99.90
29201;DHT22;16244;51.956;12.980;2022-12-22T08:36:14;7.00;99.90
29201;DHT22;16244;51.956;12.980;2022-12-22T08:38:42;7.00;99.90
29201;DHT22;16244;51.956;12.980;2022-12-22T08:41:11;7.10;99.90
29201;DHT22;16244;51.956;12.980;2022-12-22T08:43:41;7.10;99.90
29201;DHT22;16244;51.956;12.980;2022-12-22T08:46:08;7.10;99.90
29201;DHT22;16244;51.956;12.980;2022-12-22T08:48:36;7.10;99.90
29201;DHT22;16244;51.956;12.980;2022-12-22T08:51:04;7.20;99.90
29201;DHT22;16244;51.956;12.980;2022-12-22T08:53:31;7.20;99.90
29201;DHT22;16244;51.956;12.980;2022-12-22T08:55:58;7.20;99.90
29201;DHT22;16244;51.956;12.980;2022-12-22T08:58:25;7.20;99.90
29201;DHT22;16244;51.956;12.980;2022-12-22T09:00:54;7.20;99.90
29201;DHT22;16244;51.956;12.980;2022-12-22T09:03:21;7.20;99.90
29201;DHT22;16244;51.956;12.980;2022-12-22T09:05:48;7.20;99.90
29201;DHT22;16244;51.956;12.980;2022-12-22T09:08:15;7.20;99.90
29201;DHT22;16244;51.956;12.980;2022-12-22T09:10:42;7.20;99.90
29201;DHT22;16244;51.956;12.980;2022-12-22T09:13:09;7.30;99.90
29201;DHT22;16244;51.956;12.980;2022-12-22T09:15:36;7.30;99.90
29201;DHT22;16244;51.956;12.980;2022-12-22T09:18:05;7.20;99.90
29201;DHT22;16244;51.956;12.980;2022-12-22T09:20:33;7.20;99.90
29201;DHT22;16244;51.956;12.980;2022-12-22T09:23:00;7.30;99.90
29201;DHT22;16244;51.956;12.980;2022-12-22T09:25:27;7.30;99.90
29201;DHT22;16244;51.956;12.980;2022-12-22T09:27:54;7.20;99.90
29201;DHT22;16244;51.956;12.980;2022-12-22T09:30:21;7.30;99.90
29201;DHT22;16244;51.956;12.980;2022-12-22T09:32:48;7.20;99.90
29201;DHT22;16244;51.956;12.980;2022-12-22T09:35:17;7.30;99.90
29201;DHT22;16244;51.956;12.980;2022-12-22T09:37:44;7.30;99.90
29201;DHT22;16244;51.956;12.980;2022-12-22T09:40:12;7.30;99.90
29201;DHT22;16244;51.956;12.980;2022-12-22T09:42:39;7.30;99.90
29201;DHT22;16244;51.956;12.980;2022-12-22T09:45:10;7.30;99.90
29201;DHT22;16244;51.956;12.980;2022-12-22T09:47:46;7.30;99.90
29201;DHT22;16244;51.956;12.980;2022-12-22T09:50:23;7.30;99.90
29201;DHT22;16244;51.956;12.980;2022-12-22T09:52:51;7.40;99.90
29201;DHT22;16244;51.956;12.980;2022-12-22T09:55:31;7.40;99.90
29201;DHT22;16244;51.956;12.980;2022-12-22T09:58:03;7.40;99.90
29201;DHT22;16244;51.956;12.980;2022-12-22T10:00:33;7.50;99.90
29201;DHT22;16244;51.956;12.980;2022-12-22T10:03:08;7.50;99.90
29201;DHT22;16244;51.956;12.980;2022-12-22T10:05:44;7.60;99.90
29201;DHT22;16244;51.956;12.980;2022-12-22T10:08:14;7.60;99.90
29201;DHT22;16244;51.956;12.980;2022-12-22T10:10:42;7.60;99.90
29201;DHT22;16244;51.956;12.980;2022-12-22T10:13:15;7.60;99.90
29201;DHT22;16244;51.956;12.980;2022-12-22T10:15:43;7.70;99.90
29201;DHT22;16244;51.956;12.980;2022-12-22T10:18:13;7.70;99.90
29201;DHT22;16244;51.956;12.980;2022-12-22T10:20:44;7.70;99.90
29201;DHT22;16244;51.956;12.980;2022-12-22T10:23:15;7.80;99.90
29201;DHT22;16244;51.956;12.980;2022-12-22T10:25:57;7.80;99.90
29201;DHT22;16244;51.956;12.980;2022-12-22T10:28:27;7.80;99.90
29201;DHT22;16244;51.956;12.980;2022-12-22T10:31:10;7.80;99.90
29201;DHT22;16244;51.956;12.980;2022-12-22T10:33:38;7.70;99.90
29201;DHT22;16244;51.956;12.980;2022-12-22T10:36:06;7.80;99.90
29201;DHT22;16244;51.956;12.980;2022-12-22T10:38:36;7.80;99.90
29201;DHT22;16244;51.956;12.980;2022-12-22T10:41:14;7.80;99.90
29201;DHT22;16244;51.956;12.980;2022-12-22T10:43:47;7.80;99.90
29201;DHT22;16244;51.956;12.980;2022-12-22T10:46:15;7.80;99.90
29201;DHT22;16244;51.956;12.980;2022-12-22T10:48:42;7.80;99.90
29201;DHT22;16244;51.956;12.980;2022-12-22T10:51:12;7.90;99.90
29201;DHT22;16244;51.956;12.980;2022-12-22T10:53:45;7.90;99.90
29201;DHT22;16244;51.956;12.980;2022-12-22T10:56:22;7.80;99.90
29201;DHT22;16244;51.956;12.980;2022-12-22T10:58:52;7.90;99.90
29201;DHT22;16244;51.956;12.980;2022-12-22T11:01:25;7.90;99.90
29201;DHT22;16244;51.956;12.980;2022-12-22T11:03:53;8.00;99.90
29201;DHT22;16244;51.956;12.980;2022-12-22T11:06:22;8.00;99.90
29201;DHT22;16244;51.956;12.980;2022-12-22T11:08:50;8.00;99.90
29201;DHT22;16244;51.956;12.980;2022-12-22T11:11:29;8.10;99.90
29201;DHT22;16244;51.956;12.980;2022-12-22T11:14:07;8.10;99.90
29201;DHT22;16244;51.956;12.980;2022-12-22T11:16:44;8.10;99.90
29201;DHT22;16244;51.956;12.980;2022-12-22T11:19:44;8.20;99.90
29201;DHT22;16244;51.956;12.980;2022-12-22T11:22:26;8.20;99.90
29201;DHT22;16244;51.956;12.980;2022-12-22T11:25:05;8.20;99.90
29201;DHT22;16244;51.956;12.980;2022-12-22T11:27:39;8.30;99.90
29201;DHT22;16244;51.956;12.980;2022-12-22T11:30:11;8.40;99.90
29201;DHT22;16244;51.956;12.980;2022-12-22T11:32:57;8.40;99.90
29201;DHT22;16244;51.956;12.980;2022-12-22T11:35:37;8.40;99.90
29201;DHT22;16244;51.956;12.980;2022-12-22T11:38:13;8.40;99.90
29201;DHT22;16244;51.956;12.980;2022-12-22T11:40:46;8.40;99.90
29201;DHT22;16244;51.956;12.980;2022-12-22T11:43:23;8.40;99.90
29201;DHT22;16244;51.956;12.980;2022-12-22T11:46:04;8.40;99.90
29201;DHT22;16244;51.956;12.980;2022-12-22T11:48:47;8.50;99.90
29201;DHT22;16244;51.956;12.980;2022-12-22T11:51:21;8.50;99.90
29201;DHT22;16244;51.956;12.980;2022-12-22T11:54:09;8.60;99.90
29201;DHT22;16244;51.956;12.980;2022-12-22T11:56:39;8.50;99.90
29201;DHT22;16244;51.956;12.980;2022-12-22T11:59:23;8.50;99.90
29201;DHT22;16244;51.956;12.980;2022-12-22T12:02:23;8.50;99.90
29201;DHT22;16244;51.956;12.980;2022-12-22T12:05:14;8.50;99.90
29201;DHT22;16244;51.956;12.980;2022-12-22T12:07:47;8.50;99.90
29201;DHT22;16244;51.956;12.980;2022-12-22T12:10:22;8.50;99.90
29201;DHT22;16244;51.956;12.980;2022-12-22T12:12:57;8.50;99.90
29201;DHT22;16244;51.956;12.980;2022-12-22T12:15:30;8.60;99.90
29201;DHT22;16244;51.956;12.980;2022-12-22T12:18:34;8.60;99.90
29201;DHT22;16244;51.956;12.980;2022-12-22T12:21:18;8.50;99.90
29201;DHT22;16244;51.956;12.980;2022-12-22T12:24:00;8.50;99.90
29201;DHT22;16244;51.956;12.980;2022-12-22T12:26:35;8.60;99.90
29201;DHT22;16244;51.956;12.980;2022-12-22T12:29:14;8.50;99.90
29201;DHT22;16244;51.956;12.980;2022-12-22T12:31:46;8.60;99.90
29201;DHT22;16244;51.956;12.980;2022-12-22T12:34:16;8.60;99.90
29201;DHT22;16244;51.956;12.980;2022-12-22T12:36:47;8.50;99.90
29201;DHT22;16244;51.956;12.980;2022-12-22T12:39:20;8.50;99.90
29201;DHT22;16244;51.956;12.980;2022-12-22T12:41:57;8.50;99.90
29201;DHT22;16244;51.956;12.980;2022-12-22T12:44:27;8.50;99.90
29201;DHT22;16244;51.956;12.980;2022-12-22T12:47:06;8.50;99.90
29201;DHT22;16244;51.956;12.980;2022-12-22T12:50:00;8.50;99.90
29201;DHT22;16244;51.956;12.980;2022-12-22T12:56:05;8.40;99.90
29201;DHT22;16244;51.956;12.980;2022-12-22T12:58:51;8.40;99.90
29201;DHT22;16244;51.956;12.980;2022-12-22T13:01:53;8.40;99.90
29201;DHT22;16244;51.956;12.980;2022-12-22T13:08:06;8.20;99.90
29201;DHT22;16244;51.956;12.980;2022-12-22T13:10:36;8.20;99.90
29201;DHT22;16244;51.956;12.980;2022-12-22T13:13:03;8.20;99.90
29201;DHT22;16244;51.956;12.980;2022-12-22T13:15:34;8.20;99.90
29201;DHT22;16244;51.956;12.980;2022-12-22T13:18:01;8.10;99.90
29201;DHT22;16244;51.956;12.980;2022-12-22T13:20:33;8.10;99.90
29201;DHT22;16244;51.956;12.980;2022-12-22T13:23:08;8.10;99.90
29201;DHT22;16244;51.956;12.980;2022-12-22T13:25:40;8.10;99.90
29201;DHT22;16244;51.956;12.980;2022-12-22T13:28:14;8.10;99.90
29201;DHT22;16244;51.956;12.980;2022-12-22T13:30:46;8.20;99.90
29201;DHT22;16244;51.956;12.980;2022-12-22T13:33:16;8.20;99.90
29201;DHT22;16244;51.956;12.980;2022-12-22T13:35:46;8.20;99.90
29201;DHT22;16244;51.956;12.980;2022-12-22T13:38:27;8.20;99.90
29201;DHT22;16244;51.956;12.980;2022-12-22T13:40:55;8.30;99.90
29201;DHT22;16244;51.956;12.980;2022-12-22T13:43:25;8.30;99.90
29201;DHT22;16244;51.956;12.980;2022-12-22T13:45:55;8.20;99.90
29201;DHT22;16244;51.956;12.980;2022-12-22T13:48:26;8.30;99.90
29201;DHT22;16244;51.956;12.980;2022-12-22T13:50:57;8.40;99.90
29201;DHT22;16244;51.956;12.980;2022-12-22T13:53:30;8.40;99.90
29201;DHT22;16244;51.956;12.980;2022-12-22T13:55:58;8.30;99.90
29201;DHT22;16244;51.956;12.980;2022-12-22T13:58:29;8.30;99.90
29201;DHT22;16244;51.956;12.980;2022-12-22T14:01:12;8.30;99.90
29201;DHT22;16244;51.956;12.980;2022-12-22T14:03:45;8.20;99.90
29201;DHT22;16244;51.956;12.980;2022-12-22T14:06:24;8.20;99.90
29201;DHT22;16244;51.956;12.980;2022-12-22T14:08:52;8.20;99.90
29201;DHT22;16244;51.956;12.980;2022-12-22T14:11:20;8.10;99.90
29201;DHT22;16244;51.956;12.980;2022-12-22T14:13:48;8.10;99.90
29201;DHT22;16244;51.956;12.980;2022-12-22T14:16:16;8.00;99.90
29201;DHT22;16244;51.956;12.980;2022-12-22T14:18:43;8.00;99.90
29201;DHT22;16244;51.956;12.980;2022-12-22T14:21:11;8.00;99.90
29201;DHT22;16244;51.956;12.980;2022-12-22T14:23:40;8.00;99.90
29201;DHT22;16244;51.956;12.980;2022-12-22T14:26:12;7.90;99.90
29201;DHT22;16244;51.956;12.980;2022-12-22T14:28:42;7.90;99.90
29201;DHT22;16244;51.956;12.980;2022-12-22T14:31:17;7.90;99.90
29201;DHT22;16244;51.956;12.980;2022-12-22T14:33:51;7.90;99.90
29201;DHT22;16244;51.956;12.980;2022-12-22T14:36:21;7.80;99.90
29201;DHT22;16244;51.956;12.980;2022-12-22T14:38:50;7.80;99.90
29201;DHT22;16244;51.956;12.980;2022-12-22T14:41:21;7.80;99.90
29201;DHT22;16244;51.956;12.980;2022-12-22T14:44:13;7.80;99.90
29201;DHT22;16244;51.956;12.980;2022-12-22T14:46:43;7.90;99.90
29201;DHT22;16244;51.956;12.980;2022-12-22T14:49:14;7.80;99.90
29201;DHT22;16244;51.956;12.980;2022-12-22T14:51:42;7.90;99.90
29201;DHT22;16244;51.956;12.980;2022-12-22T14:54:18;7.90;99.90
29201;DHT22;16244;51.956;12.980;2022-12-22T14:56:48;7.90;99.90
29201;DHT22;16244;51.956;12.980;2022-12-22T14:59:24;7.90;99.90
29201;DHT22;16244;51.956;12.980;2022-12-22T15:01:58;8.00;99.90
29201;DHT22;16244;51.956;12.980;2022-12-22T15:04:25;7.90;99.90
29201;DHT22;16244;51.956;12.980;2022-12-22T15:07:04;8.00;99.90
29201;DHT22;16244;51.956;12.980;2022-12-22T15:09:32;8.00;99.90
29201;DHT22;16244;51.956;12.980;2022-12-22T15:12:04;8.00;99.90
29201;DHT22;16244;51.956;12.980;2022-12-22T15:14:35;8.00;99.90
29201;DHT22;16244;51.956;12.980;2022-12-22T15:17:06;8.10;99.90
29201;DHT22;16244;51.956;12.980;2022-12-22T15:19:34;8.00;99.90
29201;DHT22;16244;51.956;12.980;2022-12-22T15:22:05;7.90;99.90
29201;DHT22;16244;51.956;12.980;2022-12-22T15:24:32;7.90;99.90
29201;DHT22;16244;51.956;12.980;2022-12-22T15:26:59;7.90;99.90
29201;DHT22;16244;51.956;12.980;2022-12-22T15:29:27;7.90;99.90
29201;DHT22;16244;51.956;12.980;2022-12-22T15:31:54;7.90;99.90
29201;DHT22;16244;51.956;12.980;2022-12-22T15:34:24;7.90;99.90
29201;DHT22;16244;51.956;12.980;2022-12-22T15:36:52;7.80;99.90
29201;DHT22;16244;51.956;12.980;2022-12-22T15:39:20;7.90;99.90
29201;DHT22;16244;51.956;12.980;2022-12-22T15:41:48;7.80;99.90
29201;DHT22;16244;51.956;12.980;2022-12-22T15:44:15;7.90;99.90
29201;DHT22;16244;51.956;12.980;2022-12-22T15:46:44;7.90;99.90
29201;DHT22;16244;51.956;12.980;2022-12-22T15:49:17;7.90;99.90
29201;DHT22;16244;51.956;12.980;2022-12-22T15:51:47;7.90;99.90
29201;DHT22;16244;51.956;12.980;2022-12-22T15:54:16;7.90;99.90
29201;DHT22;16244;51.956;12.980;2022-12-22T15:56:44;7.90;99.90
29201;DHT22;16244;51.956;12.980;2022-12-22T15:59:17;7.80;99.90
29201;DHT22;16244;51.956;12.980;2022-12-22T16:01:45;7.70;99.90
29201;DHT22;16244;51.956;12.980;2022-12-22T16:04:12;7.60;99.90
29201;DHT22;16244;51.956;12.980;2022-12-22T16:06:39;7.60;99.90
29201;DHT22;16244;51.956;12.980;2022-12-22T16:09:17;7.60;99.90
29201;DHT22;16244;51.956;12.980;2022-12-22T16:11:46;7.50;99.90
29201;DHT22;16244;51.956;12.980;2022-12-22T16:14:14;7.50;99.90
29201;DHT22;16244;51.956;12.980;2022-12-22T16:16:42;7.40;99.90
29201;DHT22;16244;51.956;12.980;2022-12-22T16:19:12;7.30;99.90
29201;DHT22;16244;51.956;12.980;2022-12-22T16:21:42;7.30;99.90
29201;DHT22;16244;51.956;12.980;2022-12-22T16:24:31;7.30;99.90
29201;DHT22;16244;51.956;12.980;2022-12-22T16:27:00;7.30;99.90
29201;DHT22;16244;51.956;12.980;2022-12-22T16:29:27;7.30;99.90
29201;DHT22;16244;51.956;12.980;2022-12-22T16:32:12;7.30;99.90